createdAt,value
2023-05-04T00:02:54.887Z,0
2023-05-04T00:07:54.815Z,0
2023-05-04T00:12:54.820Z,0
2023-05-04T00:17:54.834Z,0
2023-05-04T00:22:54.824Z,0
2023-05-04T00:27:54.798Z,0
2023-05-04T00:32:54.840Z,0
2023-05-04T00:37:54.969Z,0
2023-05-04T00:42:54.847Z,0
2023-05-04T00:47:54.795Z,0
2023-05-04T00:52:54.848Z,0
2023-05-04T00:57:54.748Z,0
2023-05-04T01:02:54.908Z,0
2023-05-04T01:07:54.793Z,0
2023-05-04T01:12:54.825Z,0
2023-05-04T01:17:54.901Z,0
2023-05-04T01:22:54.852Z,0
2023-05-04T01:27:54.774Z,0
2023-05-04T01:32:54.869Z,0
2023-05-04T01:37:54.845Z,0
2023-05-04T01:42:54.841Z,0
2023-05-04T01:47:54.847Z,0
2023-05-04T01:52:54.829Z,0
2023-05-04T01:57:54.880Z,0
2023-05-04T02:02:54.934Z,0
2023-05-04T02:07:54.800Z,0
2023-05-04T02:12:54.884Z,0
2023-05-04T02:17:55.299Z,0
2023-05-04T02:22:54.754Z,0
2023-05-04T02:27:54.808Z,0
2023-05-04T02:32:54.813Z,0
2023-05-04T02:37:55.032Z,0
2023-05-04T02:42:54.854Z,0
2023-05-04T02:47:54.828Z,0
2023-05-04T02:52:54.807Z,0
2023-05-04T02:57:54.891Z,0
2023-05-04T03:02:54.834Z,0
2023-05-04T03:07:54.921Z,0
2023-05-04T03:12:54.905Z,0
2023-05-04T03:17:54.887Z,0
2023-05-04T03:22:55.089Z,0
2023-05-04T03:27:56.293Z,0
2023-05-04T03:32:54.837Z,257
2023-05-04T03:37:54.811Z,262
2023-05-04T03:42:54.806Z,267
2023-05-04T03:47:54.788Z,268
2023-05-04T03:52:54.853Z,271
2023-05-04T03:57:54.820Z,275
2023-05-04T04:02:54.855Z,283
2023-05-04T04:07:54.833Z,294
2023-05-04T04:12:54.904Z,300
2023-05-04T04:17:54.842Z,311
2023-05-04T04:22:54.898Z,315
2023-05-04T04:27:54.842Z,327
2023-05-04T04:32:54.905Z,345
2023-05-04T04:37:54.825Z,352
2023-05-04T04:42:54.891Z,361
2023-05-04T04:47:54.887Z,353
2023-05-04T04:52:54.908Z,368
2023-05-04T04:57:54.901Z,370
2023-05-04T05:02:54.868Z,372
2023-05-04T05:07:54.876Z,408
2023-05-04T05:12:54.842Z,425
2023-05-04T05:17:54.835Z,454
2023-05-04T05:22:54.854Z,470
2023-05-04T05:27:54.811Z,480
2023-05-04T05:32:54.857Z,515
2023-05-04T05:37:54.876Z,545
2023-05-04T05:42:54.838Z,552
2023-05-04T05:47:54.899Z,578
2023-05-04T05:52:54.822Z,570
2023-05-04T05:57:54.930Z,573
2023-05-04T06:02:55.109Z,562
2023-05-04T06:07:55.131Z,537
2023-05-04T06:12:54.872Z,563
2023-05-04T06:17:54.870Z,582
2023-05-04T06:22:54.907Z,596
2023-05-04T06:27:54.830Z,623
2023-05-04T06:32:54.878Z,631
2023-05-04T06:37:54.823Z,650
2023-05-04T06:42:54.840Z,689
2023-05-04T06:47:54.832Z,715
2023-05-04T06:52:54.865Z,705
2023-05-04T06:57:54.830Z,746
2023-05-04T07:02:54.873Z,746
2023-05-04T07:07:54.835Z,755
2023-05-04T07:12:54.849Z,750
2023-05-04T07:17:54.883Z,745
2023-05-04T07:22:54.843Z,757
2023-05-04T07:27:55.017Z,758
2023-05-04T07:32:54.876Z,783
2023-05-04T07:37:54.881Z,840
2023-05-04T07:42:54.846Z,883
2023-05-04T07:47:54.902Z,930
2023-05-04T07:52:54.852Z,960
2023-05-04T07:57:54.876Z,1042
2023-05-04T08:02:54.893Z,1125
2023-05-04T08:07:54.827Z,1169
2023-05-04T08:12:54.902Z,1159
2023-05-04T08:17:54.848Z,1209
2023-05-04T08:22:54.932Z,1244
2023-05-04T08:27:54.890Z,1295
2023-05-04T08:32:54.852Z,1363
2023-05-04T08:37:54.919Z,1424
2023-05-04T08:42:54.963Z,1531
2023-05-04T08:47:54.943Z,3304
2023-05-04T08:52:55.059Z,11098
2023-05-04T08:57:54.962Z,10490
2023-05-04T09:02:54.949Z,11135
2023-05-04T09:07:54.850Z,12359
2023-05-04T09:12:54.884Z,11293
2023-05-04T09:17:57.587Z,11318
2023-05-04T09:22:54.919Z,11961
2023-05-04T09:27:54.935Z,13369
2023-05-04T09:32:54.904Z,12524
2023-05-04T09:37:54.964Z,13055
2023-05-04T09:42:54.883Z,13435
2023-05-04T09:47:54.886Z,10517
2023-05-04T09:52:54.908Z,13539
2023-05-04T09:57:54.909Z,14287
2023-05-04T10:02:54.921Z,13319
2023-05-04T10:07:54.913Z,14995
2023-05-04T10:12:54.923Z,14545
2023-05-04T10:17:54.918Z,15285
2023-05-04T10:22:54.905Z,15557
2023-05-04T10:27:54.896Z,14251
2023-05-04T10:32:54.927Z,14587
2023-05-04T10:37:55.113Z,14526
2023-05-04T10:42:54.928Z,15167
2023-05-04T10:47:54.979Z,13735
2023-05-04T10:52:54.894Z,15776
2023-05-04T10:57:54.894Z,15754
2023-05-04T11:02:54.915Z,14929
2023-05-04T11:07:54.878Z,12636
2023-05-04T11:12:55.045Z,1435
2023-05-04T11:17:55.462Z,1161
2023-05-04T11:22:54.940Z,1127
2023-05-04T11:27:55.000Z,1196
2023-05-04T11:32:55.006Z,1297
2023-05-04T11:37:55.039Z,1404
2023-05-04T11:42:56.860Z,1474
2023-05-04T11:47:54.971Z,1580
2023-05-04T11:52:54.953Z,1590
2023-05-04T11:57:54.923Z,1529
2023-05-04T12:02:54.990Z,1511
2023-05-04T12:07:54.939Z,1468
2023-05-04T12:12:54.951Z,1472
2023-05-04T12:17:55.055Z,1481
2023-05-04T12:22:54.910Z,1342
2023-05-04T12:27:54.934Z,1151
2023-05-04T12:32:55.014Z,1058
2023-05-04T12:37:54.902Z,998
2023-05-04T12:42:54.927Z,958
2023-05-04T12:47:54.926Z,1025
2023-05-04T12:52:54.941Z,1066
2023-05-04T12:57:55.081Z,1016
2023-05-04T13:06:00.922Z,999
2023-05-04T13:11:00.963Z,937
2023-05-04T13:16:00.927Z,827
2023-05-04T13:21:00.899Z,758
2023-05-04T13:26:00.888Z,738
2023-05-04T13:31:00.906Z,732
2023-05-04T13:36:00.986Z,754
2023-05-04T13:41:00.921Z,801
2023-05-04T13:46:00.917Z,815
2023-05-04T13:51:01.171Z,833
2023-05-04T13:56:00.953Z,1011
2023-05-04T14:01:01.046Z,901
2023-05-04T14:06:00.937Z,901
2023-05-04T14:11:00.939Z,898
2023-05-04T14:16:00.939Z,888
2023-05-04T14:21:00.971Z,902
2023-05-04T14:26:00.927Z,903
2023-05-04T14:31:01.027Z,921
2023-05-04T14:36:00.926Z,936
2023-05-04T14:41:00.905Z,965
2023-05-04T14:46:00.963Z,919
2023-05-04T14:51:00.926Z,872
2023-05-04T14:56:00.909Z,853
2023-05-04T15:01:01.005Z,832
2023-05-04T15:06:01.068Z,845
2023-05-04T15:11:01.051Z,888
2023-05-04T15:16:01.005Z,866
2023-05-04T15:21:00.973Z,828
2023-05-04T15:26:00.943Z,888
2023-05-04T15:31:00.967Z,872
2023-05-04T15:36:00.944Z,830
2023-05-04T15:41:00.903Z,720
2023-05-04T15:46:00.985Z,696
2023-05-04T15:51:00.914Z,675
2023-05-04T15:56:00.960Z,654
2023-05-04T16:01:00.912Z,614
2023-05-04T16:06:00.956Z,615
2023-05-04T16:11:01.180Z,650
2023-05-04T16:16:00.946Z,661
2023-05-04T16:21:01.041Z,583
2023-05-04T16:26:01.053Z,532
2023-05-04T16:31:01.067Z,514
2023-05-04T16:36:00.947Z,533
2023-05-04T16:41:00.972Z,555
2023-05-04T16:46:00.996Z,508
2023-05-04T16:51:00.965Z,504
2023-05-04T16:56:00.987Z,475
2023-05-04T17:01:00.958Z,494
2023-05-04T17:06:00.975Z,466
2023-05-04T17:11:00.964Z,451
2023-05-04T17:16:01.060Z,431
2023-05-04T17:21:00.945Z,411
2023-05-04T17:26:01.030Z,398
2023-05-04T17:31:00.974Z,388
2023-05-04T17:36:00.947Z,387
2023-05-04T17:41:00.977Z,381
2023-05-04T17:46:00.953Z,367
2023-05-04T17:51:01.000Z,347
2023-05-04T17:56:01.036Z,333
2023-05-04T18:01:00.998Z,325
2023-05-04T18:06:02.635Z,314
2023-05-04T18:11:00.978Z,305
2023-05-04T18:16:00.991Z,292
2023-05-04T18:21:01.002Z,280
2023-05-04T18:26:00.986Z,271
2023-05-04T18:31:00.957Z,265
2023-05-04T18:36:01.007Z,260
2023-05-04T18:41:01.084Z,258
2023-05-04T18:46:01.040Z,256
2023-05-04T18:51:00.991Z,0
2023-05-04T18:56:00.950Z,0
2023-05-04T19:01:01.049Z,0
2023-05-04T19:06:01.045Z,0
2023-05-04T19:11:01.040Z,0
2023-05-04T19:16:01.067Z,0
2023-05-04T19:21:01.060Z,0
2023-05-04T19:26:01.050Z,0
2023-05-04T19:31:01.077Z,0
2023-05-04T19:36:00.954Z,0
2023-05-04T19:41:01.033Z,0
2023-05-04T19:46:01.028Z,0
2023-05-04T19:51:00.997Z,0
2023-05-04T19:56:01.064Z,0
2023-05-04T20:01:01.078Z,0
2023-05-04T20:06:01.240Z,0
2023-05-04T20:11:01.048Z,0
2023-05-04T20:16:01.015Z,0
2023-05-04T20:21:00.966Z,0
2023-05-04T20:26:01.026Z,0
2023-05-04T20:31:01.086Z,0
2023-05-04T20:36:01.057Z,0
2023-05-04T20:41:01.060Z,0
2023-05-04T20:46:01.058Z,0
2023-05-04T20:51:13.867Z,0
2023-05-04T20:56:00.963Z,0
2023-05-04T21:01:01.016Z,0
2023-05-04T21:06:01.033Z,0
2023-05-04T21:11:01.065Z,0
2023-05-04T21:16:01.041Z,0
2023-05-04T21:21:01.009Z,0
2023-05-04T21:26:01.075Z,0
2023-05-04T21:31:01.060Z,0
2023-05-04T21:36:01.075Z,0
2023-05-04T21:41:01.045Z,0
2023-05-04T21:46:01.070Z,0
2023-05-04T21:51:01.032Z,0
2023-05-04T21:56:01.043Z,0
2023-05-04T22:01:01.201Z,0
2023-05-04T22:06:01.117Z,0
2023-05-04T22:11:01.032Z,0
2023-05-04T22:16:01.048Z,0
2023-05-04T22:21:01.069Z,0
2023-05-04T22:26:01.054Z,0
2023-05-04T22:31:01.175Z,0
2023-05-04T22:36:01.021Z,0
2023-05-04T22:41:01.059Z,0
2023-05-04T22:46:01.096Z,0
2023-05-04T22:51:01.066Z,0
2023-05-04T22:56:01.044Z,0
2023-05-04T23:01:01.065Z,0
2023-05-04T23:06:01.040Z,0
2023-05-04T23:11:01.071Z,0
2023-05-04T23:16:01.079Z,0
2023-05-04T23:21:01.039Z,0
2023-05-04T23:26:01.157Z,0
2023-05-04T23:31:01.022Z,0
2023-05-04T23:36:01.021Z,0
2023-05-04T23:41:01.068Z,0
2023-05-04T23:46:01.068Z,0
2023-05-04T23:51:01.083Z,0
2023-05-04T23:56:03.476Z,0
